createdAt,value
2023-04-25T00:02:05.046Z,91.94
2023-04-25T00:04:52.622Z,91.91
2023-04-25T00:07:19.865Z,91.88
2023-04-25T00:09:53.227Z,91.87
2023-04-25T00:12:26.259Z,91.87
2023-04-25T00:14:54.012Z,91.83
2023-04-25T00:17:27.279Z,91.66
2023-04-25T00:19:54.084Z,91.68
2023-04-25T00:22:27.228Z,91.67
2023-04-25T00:24:54.770Z,91.52
2023-04-25T00:27:28.301Z,91.50
2023-04-25T00:30:01.252Z,91.42
2023-04-25T00:32:34.288Z,91.22
2023-04-25T00:35:01.196Z,91.32
2023-04-25T00:37:34.244Z,91.04
2023-04-25T00:40:07.289Z,90.97
2023-04-25T00:42:34.119Z,91.03
2023-04-25T00:45:08.309Z,90.80
2023-04-25T00:47:37.160Z,90.95
2023-04-25T00:50:10.332Z,91.08
2023-04-25T00:52:41.251Z,90.60
2023-04-25T00:55:15.281Z,90.97
2023-04-25T00:57:42.958Z,90.70
2023-04-25T01:00:18.272Z,90.54
2023-04-25T01:02:53.362Z,90.92
2023-04-25T01:05:33.265Z,90.92
2023-04-25T01:08:07.293Z,91.24
2023-04-25T01:10:40.376Z,91.34
2023-04-25T01:13:07.171Z,91.21
2023-04-25T01:15:40.325Z,91.36
2023-04-25T01:18:14.310Z,91.06
2023-04-25T01:20:49.388Z,91.02
2023-04-25T01:23:16.399Z,91.38
2023-04-25T01:25:50.449Z,91.27
2023-04-25T01:28:18.120Z,91.51
2023-04-25T01:30:45.624Z,91.78
2023-04-25T01:33:21.273Z,91.95
2023-04-25T01:35:48.716Z,92.00
2023-04-25T01:38:22.359Z,92.04
2023-04-25T01:40:52.335Z,92.01
2023-04-25T01:43:26.230Z,92.15
2023-04-25T01:45:53.870Z,92.25
2023-04-25T01:48:20.983Z,92.29
2023-04-25T01:50:54.315Z,92.63
2023-04-25T01:53:27.271Z,92.36
2023-04-25T01:55:54.195Z,92.39
2023-04-25T01:58:27.258Z,92.26
2023-04-25T02:00:54.201Z,92.19
2023-04-25T02:03:27.417Z,92.38
2023-04-25T02:06:07.245Z,92.43
2023-04-25T02:08:40.824Z,92.65
2023-04-25T02:11:14.260Z,92.36
2023-04-25T02:13:41.032Z,92.36
2023-04-25T02:16:14.432Z,92.22
2023-04-25T02:18:48.314Z,92.47
2023-04-25T02:21:21.284Z,92.27
2023-04-25T02:23:56.253Z,92.18
2023-04-25T02:26:31.296Z,92.22
2023-04-25T02:29:05.310Z,91.97
2023-04-25T02:31:32.195Z,91.89
2023-04-25T02:34:05.258Z,91.93
2023-04-25T02:36:42.332Z,91.95
2023-04-25T02:39:09.133Z,91.96
2023-04-25T02:41:42.322Z,91.72
2023-04-25T02:44:15.366Z,91.93
2023-04-25T02:46:48.365Z,92.13
2023-04-25T02:49:21.260Z,91.83
2023-04-25T02:51:47.926Z,91.77
2023-04-25T02:54:21.291Z,91.56
2023-04-25T02:56:54.321Z,91.69
2023-04-25T02:59:27.261Z,91.63
2023-04-25T03:02:00.330Z,91.42
2023-04-25T03:04:33.349Z,91.16
2023-04-25T03:07:06.648Z,91.28
2023-04-25T03:09:47.350Z,91.27
2023-04-25T03:12:20.409Z,90.84
2023-04-25T03:14:47.317Z,91.14
2023-04-25T03:17:20.408Z,90.71
2023-04-25T03:19:53.308Z,90.79
2023-04-25T03:22:26.282Z,90.82
2023-04-25T03:24:53.036Z,90.72
2023-04-25T03:27:26.345Z,90.54
2023-04-25T03:29:53.233Z,90.59
2023-04-25T03:32:26.300Z,90.35
2023-04-25T03:34:53.124Z,90.60
2023-04-25T03:37:29.390Z,90.40
2023-04-25T03:40:02.329Z,90.28
2023-04-25T03:42:29.074Z,90.22
2023-04-25T03:45:02.311Z,90.31
2023-04-25T03:47:29.170Z,90.11
2023-04-25T03:50:02.308Z,90.25
2023-04-25T03:52:29.114Z,90.13
2023-04-25T03:55:02.382Z,90.20
2023-04-25T03:57:29.328Z,90.09
2023-04-25T04:00:02.335Z,90.31
2023-04-25T04:02:29.323Z,90.41
2023-04-25T04:05:04.677Z,90.48
2023-04-25T04:07:41.634Z,90.19
2023-04-25T04:10:15.423Z,90.20
2023-04-25T04:12:42.255Z,90.27
2023-04-25T04:15:16.403Z,90.38
2023-04-25T04:17:49.406Z,90.37
2023-04-25T04:20:16.587Z,90.27
2023-04-25T04:22:50.432Z,90.26
2023-04-25T04:25:17.364Z,90.48
2023-04-25T04:27:52.381Z,90.19
2023-04-25T04:30:25.386Z,90.33
2023-04-25T04:32:59.491Z,90.21
2023-04-25T04:35:26.503Z,90.13
2023-04-25T04:37:59.353Z,90.53
2023-04-25T04:40:26.834Z,90.19
2023-04-25T04:43:01.300Z,90.32
2023-04-25T04:45:28.830Z,90.17
2023-04-25T04:47:56.541Z,90.52
2023-04-25T04:50:30.391Z,90.24
2023-04-25T04:52:57.270Z,90.20
2023-04-25T04:55:37.372Z,90.54
2023-04-25T04:58:04.401Z,90.33
2023-04-25T05:00:40.475Z,90.38
2023-04-25T05:03:07.651Z,90.42
2023-04-25T05:05:44.101Z,90.35
2023-04-25T05:08:24.422Z,90.50
2023-04-25T05:10:51.708Z,90.13
2023-04-25T05:13:25.623Z,90.16
2023-04-25T05:15:53.338Z,90.27
2023-04-25T05:18:29.439Z,90.09
2023-04-25T05:21:03.556Z,90.18
2023-04-25T05:23:48.478Z,90.35
2023-04-25T05:26:21.373Z,90.24
2023-04-25T05:28:48.096Z,90.01
2023-04-25T05:31:21.371Z,90.15
2023-04-25T05:33:54.337Z,89.79
2023-04-25T05:36:35.348Z,89.86
2023-04-25T05:39:02.010Z,89.85
2023-04-25T05:41:35.464Z,89.93
2023-04-25T05:44:08.393Z,89.67
2023-04-25T05:46:35.265Z,89.30
2023-04-25T05:49:08.385Z,89.11
2023-04-25T05:51:41.728Z,88.74
2023-04-25T05:54:08.564Z,88.49
2023-04-25T05:56:42.321Z,88.65
2023-04-25T05:59:09.165Z,87.86
2023-04-25T06:01:42.442Z,87.41
2023-04-25T06:04:09.389Z,87.58
2023-04-25T06:06:49.433Z,87.52
2023-04-25T06:09:16.325Z,86.11
2023-04-25T06:11:49.413Z,86.78
2023-04-25T06:14:16.419Z,86.24
2023-04-25T06:16:49.388Z,86.55
2023-04-25T06:19:16.048Z,85.10
2023-04-25T06:21:51.373Z,83.46
2023-04-25T06:24:24.461Z,83.65
2023-04-25T06:26:51.519Z,83.47
2023-04-25T06:29:24.378Z,83.78
2023-04-25T06:31:51.532Z,83.47
2023-04-25T06:34:25.448Z,83.39
2023-04-25T06:36:52.260Z,82.79
2023-04-25T06:39:25.446Z,83.34
2023-04-25T06:41:52.442Z,82.20
2023-04-25T06:44:26.455Z,82.54
2023-04-25T06:46:53.446Z,82.24
2023-04-25T06:49:26.382Z,82.25
2023-04-25T06:51:53.335Z,82.42
2023-04-25T06:54:20.111Z,82.70
2023-04-25T06:56:53.363Z,82.72
2023-04-25T06:59:20.246Z,82.84
2023-04-25T07:01:53.414Z,80.95
2023-04-25T07:04:21.057Z,80.25
2023-04-25T07:07:01.384Z,79.68
2023-04-25T07:09:28.201Z,79.14
2023-04-25T07:12:01.415Z,78.98
2023-04-25T07:14:28.750Z,78.08
2023-04-25T07:17:04.426Z,77.76
2023-04-25T07:19:31.336Z,79.02
2023-04-25T07:22:04.426Z,78.11
2023-04-25T07:24:31.369Z,78.42
2023-04-25T07:27:05.375Z,77.46
2023-04-25T07:29:33.105Z,79.05
2023-04-25T07:32:06.638Z,79.18
2023-04-25T07:34:33.882Z,78.84
2023-04-25T07:37:07.493Z,77.74
2023-04-25T07:39:40.509Z,77.91
2023-04-25T07:42:09.358Z,76.27
2023-04-25T07:44:46.482Z,75.17
2023-04-25T07:47:13.345Z,76.61
2023-04-25T07:49:47.449Z,74.13
2023-04-25T07:52:14.499Z,72.83
2023-04-25T07:54:51.517Z,70.65
2023-04-25T07:57:24.444Z,68.52
2023-04-25T07:59:57.447Z,67.36
2023-04-25T08:02:24.315Z,67.07
2023-04-25T08:04:57.580Z,66.13
2023-04-25T08:07:30.677Z,66.58
2023-04-25T08:10:03.474Z,67.00
2023-04-25T08:12:36.452Z,67.38
2023-04-25T08:15:05.051Z,67.07
2023-04-25T08:17:38.465Z,64.89
2023-04-25T08:20:07.034Z,63.04
2023-04-25T08:22:41.865Z,61.94
2023-04-25T08:25:09.184Z,63.23
2023-04-25T08:27:42.458Z,64.45
2023-04-25T08:30:10.040Z,61.93
2023-04-25T08:32:45.432Z,61.77
2023-04-25T08:35:12.486Z,62.22
2023-04-25T08:37:46.553Z,61.59
2023-04-25T08:40:16.104Z,61.15
2023-04-25T08:42:50.516Z,62.00
2023-04-25T08:45:17.439Z,59.72
2023-04-25T08:47:53.511Z,61.56
2023-04-25T08:50:23.569Z,61.60
2023-04-25T08:53:00.560Z,60.71
2023-04-25T08:55:34.500Z,60.20
2023-04-25T08:58:08.505Z,60.18
2023-04-25T09:00:42.742Z,58.51
2023-04-25T09:03:10.062Z,58.56
2023-04-25T09:05:47.158Z,57.56
2023-04-25T09:08:20.890Z,60.27
2023-04-25T09:10:54.509Z,60.79
2023-04-25T09:13:29.451Z,60.22
2023-04-25T09:16:05.509Z,58.80
2023-04-25T09:18:36.466Z,58.03
2023-04-25T09:21:15.094Z,60.29
2023-04-25T09:23:50.020Z,60.07
2023-04-25T09:26:25.528Z,59.95
2023-04-25T09:29:07.889Z,56.95
2023-04-25T09:31:41.672Z,57.68
2023-04-25T09:34:08.581Z,57.46
2023-04-25T09:36:42.458Z,59.35
2023-04-25T09:39:23.479Z,59.52
2023-04-25T09:42:01.581Z,60.07
2023-04-25T09:44:28.526Z,62.27
2023-04-25T09:46:55.443Z,65.80
2023-04-25T09:49:29.843Z,69.13
2023-04-25T09:51:58.355Z,70.64
2023-04-25T09:54:32.582Z,72.33
2023-04-25T09:57:12.316Z,71.67
2023-04-25T09:59:59.567Z,71.29
2023-04-25T10:02:28.599Z,71.28
2023-04-25T10:05:03.637Z,71.54
2023-04-25T10:07:43.560Z,69.72
2023-04-25T10:10:20.514Z,64.56
2023-04-25T10:12:47.793Z,67.53
2023-04-25T10:15:22.534Z,64.50
2023-04-25T10:17:50.842Z,65.37
2023-04-25T10:20:24.532Z,64.26
2023-04-25T10:22:57.720Z,62.23
2023-04-25T10:25:32.512Z,61.15
2023-04-25T10:28:01.189Z,60.74
2023-04-25T10:30:34.606Z,60.73
2023-04-25T10:33:01.540Z,59.43
2023-04-25T10:35:36.521Z,57.88
2023-04-25T10:38:18.540Z,56.77
2023-04-25T10:41:04.451Z,57.30
2023-04-25T10:43:49.632Z,56.26
2023-04-25T10:46:36.600Z,55.23
2023-04-25T10:49:04.281Z,56.31
2023-04-25T10:51:55.061Z,53.52
2023-04-25T10:54:24.273Z,54.31
2023-04-25T10:56:58.526Z,52.23
2023-04-25T10:59:32.539Z,53.63
2023-04-25T11:01:59.806Z,53.64
2023-04-25T11:04:43.731Z,56.82
2023-04-25T11:08:08.300Z,59.69
2023-04-25T11:10:45.486Z,62.30
2023-04-25T11:13:12.318Z,60.57
2023-04-25T11:15:45.496Z,58.28
2023-04-25T11:18:23.570Z,59.06
2023-04-25T11:20:57.596Z,57.13
2023-04-25T11:23:30.677Z,57.36
2023-04-25T11:26:04.619Z,56.93
2023-04-25T11:28:31.735Z,57.70
2023-04-25T11:31:05.642Z,57.50
2023-04-25T11:33:32.491Z,57.16
2023-04-25T11:36:05.589Z,54.99
2023-04-25T11:38:38.570Z,54.08
2023-04-25T11:41:05.440Z,52.19
2023-04-25T11:43:38.547Z,51.37
2023-04-25T11:46:09.402Z,52.94
2023-04-25T11:48:51.637Z,50.92
2023-04-25T11:51:18.913Z,49.50
2023-04-25T11:53:52.524Z,53.70
2023-04-25T11:56:19.341Z,56.08
2023-04-25T11:59:11.149Z,57.83
2023-04-25T12:01:48.867Z,58.99
2023-04-25T12:04:24.104Z,61.39
2023-04-25T12:07:04.868Z,63.46
2023-04-25T12:09:40.747Z,64.00
2023-04-25T12:12:17.524Z,64.06
2023-04-25T12:14:49.510Z,62.40
2023-04-25T12:17:24.620Z,62.87
2023-04-25T12:19:58.628Z,62.46
2023-04-25T12:22:32.566Z,60.52
2023-04-25T12:25:06.571Z,60.56
2023-04-25T12:27:33.400Z,58.81
2023-04-25T12:30:06.619Z,55.76
2023-04-25T12:32:39.576Z,51.39
2023-04-25T12:35:07.822Z,53.73
2023-04-25T12:37:41.861Z,51.38
2023-04-25T12:40:10.067Z,52.06
2023-04-25T12:42:43.559Z,51.96
2023-04-25T12:45:16.846Z,49.93
2023-04-25T12:47:50.617Z,49.18
2023-04-25T12:50:23.600Z,50.76
2023-04-25T12:52:56.612Z,50.51
2023-04-25T12:55:29.709Z,50.50
2023-04-25T12:57:56.483Z,51.17
2023-04-25T13:00:29.683Z,56.49
2023-04-25T13:02:56.765Z,59.79
2023-04-25T13:05:30.619Z,61.97
2023-04-25T13:08:04.307Z,61.28
2023-04-25T13:10:37.548Z,59.43
2023-04-25T13:13:10.775Z,53.00
2023-04-25T13:15:44.573Z,52.96
2023-04-25T13:18:17.744Z,51.12
2023-04-25T13:20:44.533Z,52.17
2023-04-25T13:23:17.652Z,52.98
2023-04-25T13:25:51.308Z,53.41
2023-04-25T13:28:24.622Z,52.93
2023-04-25T13:30:52.998Z,54.22
2023-04-25T13:33:27.652Z,54.37
2023-04-25T13:35:58.489Z,54.19
2023-04-25T13:38:33.768Z,53.89
2023-04-25T13:41:00.756Z,54.33
2023-04-25T13:43:33.738Z,55.20
2023-04-25T13:46:00.757Z,54.01
2023-04-25T13:48:34.620Z,53.18
2023-04-25T13:51:01.434Z,53.78
2023-04-25T13:53:34.646Z,50.28
2023-04-25T13:56:01.591Z,51.82
2023-04-25T13:58:34.579Z,50.97
2023-04-25T14:01:01.457Z,48.62
2023-04-25T14:03:28.410Z,50.11
2023-04-25T14:06:01.711Z,50.24
2023-04-25T14:08:35.025Z,45.82
2023-04-25T14:11:08.757Z,48.37
2023-04-25T14:13:35.939Z,47.48
2023-04-25T14:16:09.672Z,47.42
2023-04-25T14:18:36.772Z,47.19
2023-04-25T14:21:03.732Z,45.97
2023-04-25T14:23:36.640Z,44.92
2023-04-25T14:26:03.581Z,43.40
2023-04-25T14:28:36.607Z,44.39
2023-04-25T14:31:03.392Z,42.30
2023-04-25T14:33:36.620Z,41.16
2023-04-25T14:36:03.629Z,39.87
2023-04-25T14:38:36.611Z,41.19
2023-04-25T14:41:09.635Z,40.92
2023-04-25T14:43:44.619Z,39.01
2023-04-25T14:46:12.244Z,41.09
2023-04-25T14:48:46.973Z,44.22
2023-04-25T14:51:14.021Z,46.26
2023-04-25T14:53:48.698Z,48.69
2023-04-25T14:56:15.608Z,49.92
2023-04-25T14:58:48.644Z,54.05
2023-04-25T15:01:22.789Z,60.32
2023-04-25T15:03:49.716Z,63.71
2023-04-25T15:06:22.703Z,64.90
2023-04-25T15:08:55.850Z,65.41
2023-04-25T15:11:29.661Z,66.54
2023-04-25T15:13:56.465Z,68.32
2023-04-25T15:16:29.743Z,70.01
2023-04-25T15:18:56.574Z,69.88
2023-04-25T15:21:29.709Z,68.85
2023-04-25T15:24:03.109Z,69.59
2023-04-25T15:26:36.685Z,68.89
2023-04-25T15:29:11.823Z,70.27
2023-04-25T15:31:45.755Z,68.11
2023-04-25T15:34:12.562Z,66.77
2023-04-25T15:36:45.674Z,65.16
2023-04-25T15:39:12.727Z,63.90
2023-04-25T15:41:39.567Z,63.65
2023-04-25T15:44:14.706Z,61.18
2023-04-25T15:46:41.864Z,61.29
2023-04-25T15:49:15.647Z,60.12
2023-04-25T15:51:42.493Z,59.33
2023-04-25T15:54:15.615Z,56.53
2023-04-25T15:56:42.346Z,54.76
2023-04-25T15:59:15.720Z,54.75
2023-04-25T16:01:42.742Z,57.71
2023-04-25T16:04:16.700Z,57.31
2023-04-25T16:06:50.671Z,59.81
2023-04-25T16:09:23.792Z,58.68
2023-04-25T16:11:57.720Z,59.16
2023-04-25T16:14:30.700Z,58.61
2023-04-25T16:17:03.663Z,59.38
2023-04-25T16:19:30.452Z,58.33
2023-04-25T16:22:03.654Z,59.58
2023-04-25T16:24:30.489Z,59.09
2023-04-25T16:27:04.692Z,59.04
2023-04-25T16:29:44.695Z,59.68
2023-04-25T16:32:17.663Z,59.86
2023-04-25T16:34:44.957Z,59.55
2023-04-25T16:37:18.712Z,59.63
2023-04-25T16:39:46.177Z,59.37
2023-04-25T16:42:19.826Z,56.71
2023-04-25T16:44:46.907Z,58.24
2023-04-25T16:47:20.789Z,57.31
2023-04-25T16:49:54.904Z,55.48
2023-04-25T16:52:23.982Z,56.70
2023-04-25T16:54:57.690Z,56.02
2023-04-25T16:57:24.501Z,55.28
2023-04-25T16:59:58.681Z,56.50
2023-04-25T17:02:25.543Z,56.91
2023-04-25T17:04:59.739Z,56.34
2023-04-25T17:07:33.204Z,57.46
2023-04-25T17:10:06.673Z,59.18
2023-04-25T17:12:33.894Z,60.42
2023-04-25T17:15:07.690Z,61.89
2023-04-25T17:17:34.575Z,61.47
2023-04-25T17:20:01.530Z,62.05
2023-04-25T17:22:34.749Z,63.80
2023-04-25T17:25:01.569Z,63.50
2023-04-25T17:27:34.807Z,63.59
2023-04-25T17:30:02.703Z,63.78
2023-04-25T17:32:36.752Z,64.49
2023-04-25T17:35:04.297Z,64.78
2023-04-25T17:37:37.737Z,65.28
2023-04-25T17:40:05.332Z,65.25
2023-04-25T17:42:38.804Z,64.90
2023-04-25T17:45:06.772Z,66.61
2023-04-25T17:47:40.797Z,66.47
2023-04-25T17:50:08.957Z,67.04
2023-04-25T17:52:42.662Z,66.71
2023-04-25T17:55:15.741Z,66.30
2023-04-25T17:57:42.508Z,65.98
2023-04-25T18:00:16.730Z,65.82
2023-04-25T18:02:45.642Z,66.54
2023-04-25T18:05:19.112Z,66.09
2023-04-25T18:08:06.798Z,66.12
2023-04-25T18:10:40.812Z,65.12
2023-04-25T18:13:09.367Z,64.92
2023-04-25T18:15:42.765Z,65.35
2023-04-25T18:18:15.575Z,65.90
2023-04-25T18:20:50.653Z,66.27
2023-04-25T18:23:17.783Z,65.76
2023-04-25T18:25:53.250Z,65.45
2023-04-25T18:28:26.745Z,65.17
2023-04-25T18:30:54.616Z,65.21
2023-04-25T18:33:30.774Z,64.61
2023-04-25T18:36:01.166Z,64.52
2023-04-25T18:38:36.249Z,64.87
2023-04-25T18:41:21.061Z,65.54
2023-04-25T18:44:05.729Z,65.28
2023-04-25T18:46:33.178Z,65.81
2023-04-25T18:49:07.797Z,66.23
2023-04-25T18:51:34.610Z,66.20
2023-04-25T18:54:08.802Z,66.83
2023-04-25T18:56:36.018Z,67.35
2023-04-25T18:59:09.775Z,67.01
2023-04-25T19:01:37.407Z,67.36
2023-04-25T19:04:11.061Z,68.00
2023-04-25T19:06:58.159Z,67.76
2023-04-25T19:09:31.778Z,67.58
2023-04-25T19:11:58.623Z,69.07
2023-04-25T19:14:32.893Z,68.25
2023-04-25T19:17:00.467Z,68.53
2023-04-25T19:19:33.787Z,68.78
2023-04-25T19:22:01.076Z,68.39
2023-04-25T19:24:28.088Z,68.76
2023-04-25T19:27:01.793Z,69.18
2023-04-25T19:29:30.376Z,69.22
2023-04-25T19:32:05.774Z,69.40
2023-04-25T19:34:32.532Z,69.85
2023-04-25T19:37:05.709Z,70.20
2023-04-25T19:39:32.640Z,70.55
2023-04-25T19:42:07.792Z,70.62
2023-04-25T19:44:34.582Z,71.53
2023-04-25T19:47:08.952Z,72.28
2023-04-25T19:49:42.811Z,72.87
2023-04-25T19:52:21.831Z,73.02
2023-04-25T19:54:54.714Z,73.41
2023-04-25T19:57:21.575Z,73.09
2023-04-25T19:59:56.813Z,72.26
2023-04-25T20:02:26.796Z,72.63
2023-04-25T20:05:00.856Z,73.29
2023-04-25T20:07:47.799Z,73.29
2023-04-25T20:10:22.865Z,72.71
2023-04-25T20:12:56.833Z,72.75
2023-04-25T20:15:23.730Z,73.99
2023-04-25T20:18:12.864Z,72.61
2023-04-25T20:20:52.788Z,72.52
2023-04-25T20:23:19.929Z,73.21
2023-04-25T20:25:55.885Z,73.07
2023-04-25T20:28:35.952Z,72.59
2023-04-25T20:31:03.251Z,72.77
2023-04-25T20:33:36.887Z,72.85
2023-04-25T20:36:09.813Z,72.59
2023-04-25T20:38:42.800Z,72.63
2023-04-25T20:41:18.914Z,72.33
2023-04-25T20:43:52.934Z,72.35
2023-04-25T20:46:20.416Z,72.20
2023-04-25T20:48:47.572Z,71.97
2023-04-25T20:51:20.821Z,72.44
2023-04-25T20:53:47.716Z,72.42
2023-04-25T20:56:20.823Z,72.17
2023-04-25T20:58:47.718Z,72.70
2023-04-25T21:01:23.078Z,72.50
2023-04-25T21:03:52.009Z,72.87
2023-04-25T21:06:25.809Z,72.58
2023-04-25T21:08:59.247Z,72.53
2023-04-25T21:11:32.891Z,72.98
2023-04-25T21:13:59.829Z,72.93
2023-04-25T21:16:34.960Z,72.88
2023-04-25T21:19:02.624Z,73.28
2023-04-25T21:21:35.926Z,73.28
2023-04-25T21:24:02.802Z,73.58
2023-04-25T21:26:29.567Z,73.88
2023-04-25T21:29:02.807Z,74.50
2023-04-25T21:31:29.789Z,74.30
2023-04-25T21:34:02.827Z,74.92
2023-04-25T21:36:29.696Z,74.71
2023-04-25T21:39:05.837Z,74.20
2023-04-25T21:41:39.858Z,74.72
2023-04-25T21:44:13.885Z,75.51
2023-04-25T21:46:47.935Z,75.05
2023-04-25T21:49:14.761Z,75.14
2023-04-25T21:51:48.797Z,75.27
2023-04-25T21:54:21.881Z,75.97
2023-04-25T21:56:54.854Z,76.25
2023-04-25T21:59:30.872Z,75.71
2023-04-25T22:01:57.902Z,76.07
2023-04-25T22:04:30.989Z,75.76
2023-04-25T22:07:04.886Z,75.80
2023-04-25T22:09:54.526Z,76.77
2023-04-25T22:12:29.841Z,76.98
2023-04-25T22:14:56.916Z,76.45
2023-04-25T22:17:33.871Z,75.71
2023-04-25T22:20:01.725Z,76.72
2023-04-25T22:22:34.922Z,76.81
2023-04-25T22:25:10.119Z,75.78
2023-04-25T22:27:50.999Z,76.53
2023-04-25T22:30:18.618Z,76.35
2023-04-25T22:32:51.945Z,76.53
2023-04-25T22:35:19.596Z,77.33
2023-04-25T22:37:52.947Z,76.20
2023-04-25T22:40:19.866Z,76.67
2023-04-25T22:42:46.966Z,76.48
2023-04-25T22:45:21.903Z,76.16
2023-04-25T22:47:54.864Z,76.82
2023-04-25T22:50:28.951Z,76.13
2023-04-25T22:52:56.192Z,76.74
2023-04-25T22:55:29.851Z,76.31
2023-04-25T22:57:56.673Z,76.47
2023-04-25T23:00:32.868Z,76.57
2023-04-25T23:03:00.002Z,76.72
2023-04-25T23:05:33.857Z,76.67
2023-04-25T23:08:06.901Z,76.99
2023-04-25T23:10:39.892Z,76.72
2023-04-25T23:13:06.732Z,77.11
2023-04-25T23:15:39.865Z,76.84
2023-04-25T23:18:06.796Z,76.79
2023-04-25T23:20:40.828Z,77.44
2023-04-25T23:23:07.857Z,77.26
2023-04-25T23:25:47.125Z,77.44
2023-04-25T23:28:20.863Z,77.62
2023-04-25T23:30:53.917Z,77.71
2023-04-25T23:33:26.911Z,77.71
2023-04-25T23:35:53.898Z,77.82
2023-04-25T23:38:27.900Z,77.81
2023-04-25T23:40:54.723Z,77.83
2023-04-25T23:43:27.872Z,77.96
2023-04-25T23:45:55.546Z,78.42
2023-04-25T23:48:29.885Z,78.00
2023-04-25T23:50:56.923Z,77.90
2023-04-25T23:53:30.840Z,77.79
2023-04-25T23:55:57.742Z,77.54
2023-04-25T23:58:31.026Z,78.52
